Time,TemperatureF,DewpointF,PressureIn,WindDirection,WindDirectionDegrees,WindSpeedMPH,WindSpeedGustMPH,Humidity,HourlyPrecipIn,Conditions,Clouds,dailyrainin,SoftwareType,DateUTC
2013-02-11 00:02:00,41.0,34.0,29.54,WSW,239,14.0,-999.0,76,-99.99,,,-99.99,,2013-02-11 06:02:00,
2013-02-11 00:11:00,41.0,34.0,29.54,WSW,239,14.0,-999.0,76,-99.99,,,-99.99,,2013-02-11 06:11:00,
2013-02-11 00:21:00,40.0,33.0,29.55,SW,220,13.0,-999.0,77,-99.99,,,-99.99,,2013-02-11 06:21:00,
2013-02-11 00:32:00,40.0,34.0,29.56,WSW,243,12.0,-999.0,79,-99.99,,,-99.99,,2013-02-11 06:32:00,
2013-02-11 00:42:00,39.0,33.0,29.56,SW,225,16.0,-999.0,79,-99.99,,,-99.99,,2013-02-11 06:42:00,
2013-02-11 00:51:00,39.0,33.0,29.56,SW,225,16.0,-999.0,79,-99.99,,,-99.99,,2013-02-11 06:51:00,
2013-02-11 01:01:00,39.0,33.0,29.57,WSW,243,16.0,-999.0,80,-99.99,,,-99.99,,2013-02-11 07:01:00,
2013-02-11 01:11:00,38.0,33.0,29.58,WSW,252,16.0,-999.0,81,-99.99,,,-99.99,,2013-02-11 07:11:00,
2013-02-11 01:21:00,38.0,33.0,29.58,WSW,252,16.0,-999.0,81,-99.99,,,-99.99,,2013-02-11 07:21:00,
2013-02-11 01:32:00,38.0,33.0,29.58,WSW,238,16.0,-999.0,81,-99.99,,,-99.99,,2013-02-11 07:32:00,
2013-02-11 01:41:00,37.0,31.0,29.59,SW,236,18.0,-999.0,80,-99.99,,,-99.99,,2013-02-11 07:41:00,
2013-02-11 01:52:00,37.0,31.0,29.59,SW,236,18.0,-999.0,80,-99.99,,,-99.99,,2013-02-11 07:52:00,
2013-02-11 02:01:00,36.0,30.0,29.59,SW,227,19.0,-999.0,79,-99.99,,,-99.99,,2013-02-11 08:01:00,
2013-02-11 02:11:00,36.0,30.0,29.59,SW,227,19.0,-999.0,79,-99.99,,,-99.99,,2013-02-11 08:11:00,
2013-02-11 02:21:00,36.0,30.0,29.60,WSW,246,17.0,-999.0,79,-99.99,,,-99.99,,2013-02-11 08:21:00,
2013-02-11 02:32:00,36.0,30.0,29.61,WSW,254,17.0,-999.0,79,-99.99,,,-99.99,,2013-02-11 08:32:00,
2013-02-11 02:42:00,35.0,29.0,29.62,WSW,246,18.0,-999.0,79,-99.99,,,-99.99,,2013-02-11 08:42:00,
2013-02-11 02:52:00,35.0,29.0,29.62,WSW,246,18.0,-999.0,79,-99.99,,,-99.99,,2013-02-11 08:52:00,
2013-02-11 03:01:00,35.0,29.0,29.62,SW,223,18.0,-999.0,80,-99.99,,,-99.99,,2013-02-11 09:01:00,
2013-02-11 03:12:00,35.0,29.0,29.62,SW,223,18.0,-999.0,80,-99.99,,,-99.99,,2013-02-11 09:12:00,
2013-02-11 03:21:00,35.0,30.0,29.62,SW,231,17.0,-999.0,82,-99.99,,,-99.99,,2013-02-11 09:21:00,
2013-02-11 03:32:00,34.0,29.0,29.62,WSW,240,14.0,-999.0,83,-99.99,,,-99.99,,2013-02-11 09:32:00,
2013-02-11 03:41:00,34.0,29.0,29.62,WSW,240,14.0,-999.0,83,-99.99,,,-99.99,,2013-02-11 09:41:00,
2013-02-11 03:51:00,34.0,29.0,29.63,WSW,250,17.0,-999.0,81,-99.99,,,-99.99,,2013-02-11 09:51:00,
2013-02-11 04:01:00,34.0,28.0,29.63,WSW,256,18.0,-999.0,78,-99.99,,,-99.99,,2013-02-11 10:01:00,
2013-02-11 04:11:00,34.0,28.0,29.63,WSW,256,18.0,-999.0,78,-99.99,,,-99.99,,2013-02-11 10:11:00,
2013-02-11 04:21:00,34.0,28.0,29.64,West,270,18.0,-999.0,78,-99.99,,,-99.99,,2013-02-11 10:21:00,
2013-02-11 04:31:00,34.0,28.0,29.64,West,270,18.0,-999.0,78,-99.99,,,-99.99,,2013-02-11 10:31:00,
2013-02-11 04:42:00,34.0,28.0,29.64,West,270,18.0,-999.0,78,-99.99,,,-99.99,,2013-02-11 10:42:00,
2013-02-11 04:51:00,33.0,26.0,29.65,WSW,246,22.0,-999.0,76,-99.99,,,-99.99,,2013-02-11 10:51:00,
2013-02-11 05:01:00,33.0,25.0,29.65,WSW,246,22.0,-999.0,73,-99.99,,,-99.99,,2013-02-11 11:01:00,
2013-02-11 05:11:00,33.0,25.0,29.65,WSW,246,22.0,-999.0,73,-99.99,,,-99.99,,2013-02-11 11:11:00,
2013-02-11 05:22:00,33.0,26.0,29.65,SW,227,22.0,-999.0,74,-99.99,,,-99.99,,2013-02-11 11:22:00,
2013-02-11 05:32:00,33.0,26.0,29.66,West,259,20.0,-999.0,76,-99.99,,,-99.99,,2013-02-11 11:32:00,
2013-02-11 05:42:00,33.0,26.0,29.66,WSW,242,20.0,-999.0,75,-99.99,,,-99.99,,2013-02-11 11:42:00,
2013-02-11 05:52:00,33.0,26.0,29.66,WSW,242,20.0,-999.0,75,-99.99,,,-99.99,,2013-02-11 11:52:00,
2013-02-11 06:03:00,33.0,26.0,29.67,WSW,238,19.0,-999.0,75,-99.99,,,-99.99,,2013-02-11 12:03:00,
2013-02-11 06:12:00,33.0,26.0,29.67,WSW,238,19.0,-999.0,75,-99.99,,,-99.99,,2013-02-11 12:12:00,
2013-02-11 06:22:00,33.0,26.0,29.67,West,261,18.0,-999.0,76,-99.99,,,-99.99,,2013-02-11 12:22:00,
2013-02-11 06:32:00,33.0,26.0,29.68,WSW,248,18.0,-999.0,76,-99.99,,,-99.99,,2013-02-11 12:32:00,
2013-02-11 06:42:00,33.0,27.0,29.69,SW,227,18.0,-999.0,78,-99.99,,,-99.99,,2013-02-11 12:42:00,
2013-02-11 06:52:00,33.0,27.0,29.69,SW,227,18.0,-999.0,78,-99.99,,,-99.99,,2013-02-11 12:52:00,
2013-02-11 07:02:00,33.0,27.0,29.70,WSW,249,16.0,-999.0,78,-99.99,,,-99.99,,2013-02-11 13:02:00,
2013-02-11 07:12:00,33.0,26.0,29.71,WSW,237,20.0,-999.0,75,-99.99,,,-99.99,,2013-02-11 13:12:00,
2013-02-11 07:22:00,33.0,26.0,29.71,WSW,237,20.0,-999.0,75,-99.99,,,-99.99,,2013-02-11 13:22:00,
2013-02-11 07:32:00,33.0,26.0,29.71,West,271,18.0,-999.0,75,-99.99,,,-99.99,,2013-02-11 13:32:00,
2013-02-11 07:42:00,33.0,26.0,29.71,West,271,18.0,-999.0,75,-99.99,,,-99.99,,2013-02-11 13:42:00,
2013-02-11 07:52:00,33.0,26.0,29.72,WSW,244,18.0,-999.0,76,-99.99,,,-99.99,,2013-02-11 13:52:00,
2013-02-11 08:02:00,33.0,27.0,29.73,WSW,252,18.0,-999.0,77,-99.99,,,-99.99,,2013-02-11 14:02:00,
2013-02-11 08:11:00,33.0,27.0,29.73,WSW,252,18.0,-999.0,77,-99.99,,,-99.99,,2013-02-11 14:11:00,
2013-02-11 08:22:00,33.0,26.0,29.74,West,261,20.0,-999.0,75,-99.99,,,-99.99,,2013-02-11 14:22:00,
2013-02-11 08:33:00,32.0,25.0,29.74,West,267,21.0,-999.0,75,-99.99,,,-99.99,,2013-02-11 14:33:00,
2013-02-11 08:42:00,32.0,25.0,29.74,West,267,21.0,-999.0,75,-99.99,,,-99.99,,2013-02-11 14:42:00,
2013-02-11 08:52:00,32.0,25.0,29.74,West,267,21.0,-999.0,75,-99.99,,,-99.99,,2013-02-11 14:52:00,
2013-02-11 09:02:00,32.0,25.0,29.75,WSW,252,19.0,-999.0,76,-99.99,,,-99.99,,2013-02-11 15:02:00,
2013-02-11 09:11:00,32.0,25.0,29.75,WSW,252,19.0,-999.0,76,-99.99,,,-99.99,,2013-02-11 15:11:00,
2013-02-11 09:22:00,32.0,25.0,29.76,West,269,21.0,-999.0,76,-99.99,,,-99.99,,2013-02-11 15:22:00,
2013-02-11 09:32:00,32.0,25.0,29.77,WSW,257,19.0,-999.0,76,-99.99,,,-99.99,,2013-02-11 15:32:00,
2013-02-11 09:42:00,32.0,25.0,29.77,WSW,257,19.0,-999.0,76,-99.99,,,-99.99,,2013-02-11 15:42:00,
2013-02-11 09:52:00,32.0,25.0,29.77,WSW,257,19.0,-999.0,76,-99.99,,,-99.99,,2013-02-11 15:52:00,
2013-02-11 10:02:00,32.0,25.0,29.80,WSW,243,19.0,-999.0,75,-99.99,,,-99.99,,2013-02-11 16:02:00,
2013-02-11 10:12:00,32.0,25.0,29.80,WSW,243,19.0,-999.0,75,-99.99,,,-99.99,,2013-02-11 16:12:00,
2013-02-11 10:22:00,32.0,26.0,29.80,WSW,252,17.0,-999.0,77,-99.99,,,-99.99,,2013-02-11 16:22:00,
2013-02-11 10:32:00,32.0,25.0,29.81,West,265,20.0,-999.0,76,-99.99,,,-99.99,,2013-02-11 16:32:00,
2013-02-11 10:42:00,32.0,25.0,29.82,SW,235,19.0,-999.0,76,-99.99,,,-99.99,,2013-02-11 16:42:00,
2013-02-11 10:52:00,32.0,25.0,29.82,SW,235,19.0,-999.0,76,-99.99,,,-99.99,,2013-02-11 16:52:00,
2013-02-11 11:02:00,32.0,25.0,29.83,WSW,250,19.0,-999.0,75,-99.99,,,-99.99,,2013-02-11 17:02:00,
2013-02-11 11:11:00,32.0,25.0,29.83,WSW,250,19.0,-999.0,75,-99.99,,,-99.99,,2013-02-11 17:11:00,
2013-02-11 11:22:00,32.0,25.0,29.84,West,263,20.0,-999.0,75,-99.99,,,-99.99,,2013-02-11 17:22:00,
2013-02-11 11:32:00,32.0,26.0,29.85,West,260,17.0,-999.0,77,-99.99,,,-99.99,,2013-02-11 17:32:00,
2013-02-11 11:42:00,32.0,26.0,29.85,West,260,17.0,-999.0,77,-99.99,,,-99.99,,2013-02-11 17:42:00,
2013-02-11 11:52:00,32.0,26.0,29.85,West,261,19.0,-999.0,77,-99.99,,,-99.99,,2013-02-11 17:52:00,
2013-02-11 12:02:00,32.0,26.0,29.86,West,259,19.0,-999.0,77,-99.99,,,-99.99,,2013-02-11 18:02:00,
2013-02-11 12:11:00,32.0,26.0,29.86,West,259,19.0,-999.0,77,-99.99,,,-99.99,,2013-02-11 18:11:00,
2013-02-11 12:21:00,31.0,25.0,29.86,West,268,19.0,-999.0,78,-99.99,,,-99.99,,2013-02-11 18:21:00,
2013-02-11 12:32:00,31.0,25.0,29.87,WSW,248,18.0,-999.0,77,-99.99,,,-99.99,,2013-02-11 18:32:00,
2013-02-11 12:42:00,31.0,25.0,29.87,WSW,248,18.0,-999.0,77,-99.99,,,-99.99,,2013-02-11 18:42:00,
2013-02-11 12:52:00,32.0,26.0,29.87,West,262,17.0,-999.0,77,-99.99,,,-99.99,,2013-02-11 18:52:00,
2013-02-11 13:02:00,32.0,25.0,29.87,WSW,248,18.0,-999.0,76,-99.99,,,-99.99,,2013-02-11 19:02:00,
2013-02-11 13:11:00,32.0,25.0,29.87,WSW,248,18.0,-999.0,76,-99.99,,,-99.99,,2013-02-11 19:11:00,
2013-02-11 13:21:00,32.0,26.0,29.88,WSW,252,19.0,-999.0,77,-99.99,,,-99.99,,2013-02-11 19:21:00,
2013-02-11 13:32:00,31.0,25.0,29.88,WSW,252,19.0,-999.0,77,-99.99,,,-99.99,,2013-02-11 19:32:00,
2013-02-11 13:42:00,31.0,25.0,29.88,WSW,252,19.0,-999.0,77,-99.99,,,-99.99,,2013-02-11 19:42:00,
2013-02-11 13:51:00,32.0,26.0,29.89,WSW,253,16.0,-999.0,77,-99.99,,,-99.99,,2013-02-11 19:51:00,
2013-02-11 14:01:00,32.0,26.0,29.89,WSW,251,17.0,-999.0,77,-99.99,,,-99.99,,2013-02-11 20:01:00,
2013-02-11 14:11:00,32.0,26.0,29.90,West,263,17.0,-999.0,77,-99.99,,,-99.99,,2013-02-11 20:11:00,
2013-02-11 14:21:00,32.0,26.0,29.90,West,263,17.0,-999.0,77,-99.99,,,-99.99,,2013-02-11 20:21:00,
2013-02-11 14:32:00,32.0,25.0,29.90,WSW,241,19.0,-999.0,75,-99.99,,,-99.99,,2013-02-11 20:32:00,
2013-02-11 14:42:00,32.0,25.0,29.91,WSW,254,17.0,-999.0,76,-99.99,,,-99.99,,2013-02-11 20:42:00,
2013-02-11 14:52:00,32.0,25.0,29.91,WSW,254,17.0,-999.0,76,-99.99,,,-99.99,,2013-02-11 20:52:00,
2013-02-11 15:02:00,31.0,25.0,29.92,WSW,256,17.0,-999.0,78,-99.99,,,-99.99,,2013-02-11 21:02:00,
2013-02-11 15:11:00,31.0,24.0,29.93,West,262,19.0,-999.0,74,-99.99,,,-99.99,,2013-02-11 21:11:00,
2013-02-11 15:22:00,31.0,24.0,29.93,West,262,19.0,-999.0,74,-99.99,,,-99.99,,2013-02-11 21:22:00,
2013-02-11 15:32:00,31.0,24.0,29.94,West,265,16.0,-999.0,75,-99.99,,,-99.99,,2013-02-11 21:32:00,
2013-02-11 15:42:00,31.0,24.0,29.94,West,265,16.0,-999.0,75,-99.99,,,-99.99,,2013-02-11 21:42:00,
2013-02-11 15:52:00,31.0,24.0,29.94,West,273,15.0,-999.0,75,-99.99,,,-99.99,,2013-02-11 21:52:00,
2013-02-11 16:02:00,31.0,24.0,29.95,WSW,258,16.0,-999.0,75,-99.99,,,-99.99,,2013-02-11 22:02:00,
2013-02-11 16:11:00,31.0,25.0,29.96,West,267,13.0,-999.0,77,-99.99,,,-99.99,,2013-02-11 22:11:00,
2013-02-11 16:22:00,31.0,25.0,29.96,West,267,13.0,-999.0,77,-99.99,,,-99.99,,2013-02-11 22:22:00,
2013-02-11 16:32:00,31.0,25.0,29.96,West,273,12.0,-999.0,77,-99.99,,,-99.99,,2013-02-11 22:32:00,
2013-02-11 16:42:00,31.0,25.0,29.96,West,273,12.0,-999.0,77,-99.99,,,-99.99,,2013-02-11 22:42:00,
2013-02-11 16:52:00,31.0,25.0,29.96,WSW,255,13.0,-999.0,77,-99.99,,,-99.99,,2013-02-11 22:52:00,
2013-02-11 17:02:00,31.0,25.0,29.97,West,269,14.0,-999.0,77,-99.99,,,-99.99,,2013-02-11 23:02:00,
2013-02-11 17:11:00,31.0,25.0,29.97,West,269,14.0,-999.0,77,-99.99,,,-99.99,,2013-02-11 23:11:00,
2013-02-11 17:21:00,31.0,25.0,29.98,West,269,12.0,-999.0,78,-99.99,,,-99.99,,2013-02-11 23:21:00,
2013-02-11 17:32:00,31.0,25.0,29.98,WSW,252,12.0,-999.0,79,-99.99,,,-99.99,,2013-02-11 23:32:00,
2013-02-11 17:42:00,31.0,25.0,29.98,WSW,252,12.0,-999.0,79,-99.99,,,-99.99,,2013-02-11 23:42:00,
2013-02-11 17:52:00,31.0,25.0,29.99,West,269,9.0,-999.0,79,-99.99,,,-99.99,,2013-02-11 23:52:00,
2013-02-11 18:02:00,31.0,26.0,29.99,West,281,10.0,-999.0,80,-99.99,,,-99.99,,2013-02-12 00:02:00,
2013-02-11 18:11:00,31.0,26.0,29.99,West,281,10.0,-999.0,80,-99.99,,,-99.99,,2013-02-12 00:11:00,
2013-02-11 18:22:00,31.0,26.0,30.00,West,270,9.0,-999.0,80,-99.99,,,-99.99,,2013-02-12 00:22:00,
2013-02-11 18:32:00,31.0,26.0,30.01,West,272,11.0,-999.0,81,-99.99,,,-99.99,,2013-02-12 00:32:00,
2013-02-11 18:42:00,31.0,26.0,30.01,West,272,11.0,-999.0,81,-99.99,,,-99.99,,2013-02-12 00:42:00,
2013-02-11 18:52:00,31.0,26.0,30.01,West,275,11.0,-999.0,81,-99.99,,,-99.99,,2013-02-12 00:52:00,
2013-02-11 19:02:00,31.0,26.0,30.02,West,263,10.0,-999.0,82,-99.99,,,-99.99,,2013-02-12 01:02:00,
2013-02-11 19:11:00,31.0,26.0,30.02,West,263,10.0,-999.0,82,-99.99,,,-99.99,,2013-02-12 01:11:00,
2013-02-11 19:21:00,31.0,26.0,30.02,WNW,291,9.0,-999.0,81,-99.99,,,-99.99,,2013-02-12 01:21:00,
2013-02-11 19:32:00,31.0,26.0,30.02,WNW,291,9.0,-999.0,81,-99.99,,,-99.99,,2013-02-12 01:32:00,
2013-02-11 19:42:00,31.0,26.0,30.02,WNW,291,9.0,-999.0,81,-99.99,,,-99.99,,2013-02-12 01:42:00,
2013-02-11 19:51:00,31.0,26.0,30.02,WNW,291,9.0,-999.0,81,-99.99,,,-99.99,,2013-02-12 01:51:00,
2013-02-11 20:02:00,31.0,26.0,30.03,West,273,11.0,-999.0,81,-99.99,,,-99.99,,2013-02-12 02:02:00,
2013-02-11 20:12:00,31.0,26.0,30.03,West,273,11.0,-999.0,81,-99.99,,,-99.99,,2013-02-12 02:12:00,
2013-02-11 20:21:00,30.0,24.0,30.03,West,268,10.0,-999.0,79,-99.99,,,-99.99,,2013-02-12 02:21:00,
2013-02-11 20:32:00,30.0,25.0,30.03,West,260,11.0,-999.0,80,-99.99,,,-99.99,,2013-02-12 02:32:00,
2013-02-11 20:42:00,30.0,25.0,30.03,West,260,11.0,-999.0,80,-99.99,,,-99.99,,2013-02-12 02:42:00,
2013-02-11 20:52:00,30.0,25.0,30.03,West,273,10.0,-999.0,81,-99.99,,,-99.99,,2013-02-12 02:52:00,
2013-02-11 21:02:00,30.0,25.0,30.04,West,273,9.0,-999.0,81,-99.99,,,-99.99,,2013-02-12 03:02:00,
2013-02-11 21:11:00,30.0,25.0,30.04,West,273,9.0,-999.0,81,-99.99,,,-99.99,,2013-02-12 03:11:00,
2013-02-11 21:21:00,30.0,24.0,30.04,WNW,298,13.0,-999.0,79,-99.99,,,-99.99,,2013-02-12 03:21:00,
2013-02-11 21:32:00,30.0,24.0,30.05,West,259,12.0,-999.0,79,-99.99,,,-99.99,,2013-02-12 03:32:00,
2013-02-11 21:42:00,30.0,24.0,30.05,West,259,12.0,-999.0,79,-99.99,,,-99.99,,2013-02-12 03:42:00,
2013-02-11 21:51:00,29.0,23.0,30.05,West,269,13.0,-999.0,78,-99.99,,,-99.99,,2013-02-12 03:51:00,
2013-02-11 22:01:00,29.0,24.0,30.06,WSW,257,10.0,-999.0,80,-99.99,,,-99.99,,2013-02-12 04:01:00,
2013-02-11 22:11:00,29.0,24.0,30.06,WSW,257,10.0,-999.0,80,-99.99,,,-99.99,,2013-02-12 04:11:00,
2013-02-11 22:21:00,29.0,23.0,30.06,West,270,10.0,-999.0,79,-99.99,,,-99.99,,2013-02-12 04:21:00,
2013-02-11 22:31:00,29.0,24.0,30.06,West,268,9.0,-999.0,81,-99.99,,,-99.99,,2013-02-12 04:31:00,
2013-02-11 22:41:00,29.0,24.0,30.06,West,268,9.0,-999.0,81,-99.99,,,-99.99,,2013-02-12 04:41:00,
2013-02-11 22:51:00,29.0,24.0,30.06,WNW,283,8.0,-999.0,80,-99.99,,,-99.99,,2013-02-12 04:51:00,
2013-02-11 23:01:00,29.0,24.0,30.06,West,273,14.0,-999.0,80,-99.99,,,-99.99,,2013-02-12 05:01:00,
2013-02-11 23:11:00,29.0,24.0,30.06,West,273,14.0,-999.0,80,-99.99,,,-99.99,,2013-02-12 05:11:00,
2013-02-11 23:21:00,29.0,23.0,30.07,West,277,12.0,-999.0,79,-99.99,,,-99.99,,2013-02-12 05:21:00,
2013-02-11 23:31:00,29.0,24.0,30.08,West,266,9.0,-999.0,81,-99.99,,,-99.99,,2013-02-12 05:31:00,
2013-02-11 23:42:00,29.0,24.0,30.08,West,266,9.0,-999.0,81,-99.99,,,-99.99,,2013-02-12 05:42:00,
2013-02-11 23:52:00,29.0,24.0,30.08,West,265,10.0,-999.0,82,-99.99,,,-99.99,,2013-02-12 05:52:00,